Xiang Long — V3VA7 — position and weather

sailwx.info

Track history (hours):
 
Tides and Currents Weather Stations Pressure Air Temp Water Temp Dewpoint Dewpoint Depression Visibility Wind Speed Wind Dir Waves Ship Positions

Xiang Long

Last reported at 2018-Feb-24 04:59 UTC. Time now 2018-Feb-25 01:49 UTC.
Position N 30°43' E 122°15'.

Length 75 m; draft 4.2 m.

Type: Cargo ship. MMSI: 312031000.

Date/timePositionNaut miles runAvg speedWind from/ knotsBaromVisibWave heightAir tempDewpointWater temp
2018-Feb-24 04:59N 30°43' E 122°15'425 9.3
2018-Feb-22 07:29N 33°41' E 129°51'6 9.0
2018-Feb-22 06:52N 33°43' E 129°57'3 9.1
2018-Feb-22 06:31N 33°44' E 130°01'5 9.1
2018-Feb-22 06:00N 33°47' E 130°06'5 9.1
2018-Feb-22 05:30N 33°49' E 130°10'5 9.3
2018-Feb-22 04:59N 33°52' E 130°15'4 9.2
2018-Feb-22 04:30N 33°55' E 130°19'5 9.2
2018-Feb-22 04:01N 33°57' E 130°24'5 9.7
2018-Feb-22 03:30N 33°57' E 130°30'5 9.3
2018-Feb-22 03:00N 33°57' E 130°36'5 9.2
2018-Feb-22 02:30N 33°58' E 130°41'5 9.6
2018-Feb-22 02:00N 33°58' E 130°47'5 9.0
2018-Feb-22 01:30N 33°56' E 130°52'3 6.5
2018-Feb-22 01:00N 33°56' E 130°56'4 7.8
2018-Feb-22 00:31N 33°59' E 130°59'4 7.9
2018-Feb-22 00:00N 33°57' E 131°03'5 9.7
2018-Feb-21 23:30N 33°54' E 131°08'5 9.7
2018-Feb-21 23:01N 33°52' E 131°13'5 9.9
2018-Feb-21 22:30N 33°51' E 131°19'5 9.8
2018-Feb-21 22:01N 33°50' E 131°25'5 9.6
2018-Feb-21 21:31N 33°50' E 131°31'3 5.1
2018-Feb-21 20:58N 33°50' E 131°34'5 9.9
2018-Feb-21 20:31N 33°50' E 131°28'5 9.9
2018-Feb-21 20:00N 33°51' E 131°23'510.0
2018-Feb-21 19:30N 33°52' E 131°17'1 2.0
2018-Feb-21 19:01N 33°51' E 131°15'5 9.2
2018-Feb-21 18:31N 33°50' E 131°21'5 9.3
2018-Feb-21 18:01N 33°50' E 131°26'5 9.2
2018-Feb-21 17:31N 33°49' E 131°32'5 9.2
2018-Feb-21 17:00N 33°48' E 131°37'5 9.3
2018-Feb-21 16:30N 33°47' E 131°43'5 9.4
2018-Feb-21 16:00N 33°47' E 131°49'5 9.6
2018-Feb-21 15:30N 33°46' E 131°54'6 9.2
2018-Feb-21 14:53N 33°46' E 132°01'4 9.0
2018-Feb-21 14:27N 33°47' E 132°05'4 9.2
2018-Feb-21 14:00N 33°49' E 132°10'4 9.0
2018-Feb-21 13:31N 33°50' E 132°15'5 9.1
2018-Feb-21 13:00N 33°50' E 132°20'6 8.2
2018-Feb-21 12:15N 33°53' E 132°27'2 8.9
2018-Feb-21 12:01N 33°55' E 132°29'5 9.3
2018-Feb-21 11:28N 33°58' E 132°34'5 9.9
2018-Feb-21 11:00N 34°01' E 132°37'510.2
2018-Feb-21 10:30N 34°05' E 132°41'71 9.4
2018-Feb-21 02:53N 34°27' E 134°03'1510.4
2018-Feb-21 01:24N 34°25' E 134°22'410.0
2018-Feb-21 01:00N 34°27' E 134°27'5 9.9
2018-Feb-21 00:30N 34°29' E 134°32'510.0
2018-Feb-21 00:00N 34°30' E 134°38'5 9.7
2018-Feb-20 23:30N 34°32' E 134°43'5 9.6
2018-Feb-20 23:00N 34°34' E 134°49'4 8.9
2018-Feb-20 22:30N 34°35' E 134°54'4 8.4
2018-Feb-20 22:00N 34°37' E 134°58'3 6.9
2018-Feb-20 21:30N 34°37' E 135°02'3 6.6
2018-Feb-20 21:01N 34°35' E 135°06'4 8.6
2018-Feb-20 20:31N 34°31' E 135°04'5 9.1
2018-Feb-20 20:00N 34°26' E 135°03'4 8.8
2018-Feb-20 19:30N 34°22' E 135°01'4 8.4
2018-Feb-20 19:00N 34°18' E 134°60'4 8.1
2018-Feb-20 18:30N 34°14' E 134°60'4 8.9
2018-Feb-20 18:01N 34°10' E 134°60'5 9.1
2018-Feb-20 17:31N 34°05' E 134°60'5 8.9
2018-Feb-20 16:59N 34°01' E 135°00'4 9.0
2018-Feb-20 16:31N 33°56' E 135°00'5 9.0
2018-Feb-20 16:01N 33°52' E 135°01'5 9.1
2018-Feb-20 15:25N 33°48' E 135°05'161 7.9
2018-Feb-19 18:57N 34°32' E 138°12'4 8.4
2018-Feb-19 18:28N 34°33' E 138°17'8 8.7
2018-Feb-19 17:34N 34°34' E 138°27'2 8.9
2018-Feb-19 17:24N 34°34' E 138°29'4 9.2
2018-Feb-19 16:59N 34°34' E 138°33'13 8.9
2018-Feb-19 15:33N 34°35' E 138°49'0 9.1
2018-Feb-19 15:30N 34°35' E 138°49'4 8.0
2018-Feb-19 14:59N 34°36' E 138°54'4 8.1
2018-Feb-19 14:27N 34°38' E 138°59'4 8.6
2018-Feb-19 14:00N 34°41' E 139°02'6 9.9
2018-Feb-19 13:21N 34°46' E 139°07'3 9.7
2018-Feb-19 13:00N 34°48' E 139°10'6 9.7
2018-Feb-19 12:21N 34°51' E 139°17'3 9.2
2018-Feb-19 12:00N 34°52' E 139°20'5 9.7
2018-Feb-19 11:30N 34°55' E 139°25'5 9.7
2018-Feb-19 11:00N 34°57' E 139°30'5 9.4
2018-Feb-19 10:29N 35°00' E 139°35'5 9.5
2018-Feb-19 10:00N 35°04' E 139°39'5 9.8
2018-Feb-19 09:30N 35°07' E 139°42'5 9.8
2018-Feb-19 09:00N 35°12' E 139°45'4 8.6
2018-Feb-19 08:30N 35°16' E 139°46'4 9.0
2018-Feb-19 08:01N 35°20' E 139°43'4 8.6
2018-Feb-19 07:31N 35°24' E 139°43'4 8.7
2018-Feb-19 07:01N 35°27' E 139°47'3 6.7
2018-Feb-19 06:30N 35°30' E 139°46'1 2.1
2018-Feb-19 05:56N 35°31' E 139°45'0 0.0
2018-Feb-19 05:26N 35°31' E 139°45'0 0.0
2018-Feb-19 04:56N 35°31' E 139°45'0 0.0
2018-Feb-19 04:29N 35°31' E 139°45'0 0.0
2018-Feb-19 03:59N 35°31' E 139°45'0 0.0
2018-Feb-19 03:29N 35°31' E 139°45'0 0.0
2018-Feb-19 02:59N 35°31' E 139°45'0 0.0
2018-Feb-19 02:26N 35°31' E 139°45'0 0.0
2018-Feb-19 01:56N 35°31' E 139°45'0 0.0
2018-Feb-19 01:26N 35°31' E 139°45'0 0.0
2018-Feb-19 00:59N 35°31' E 139°45'0 0.0
2018-Feb-19 00:29N 35°31' E 139°45'0 0.0
2018-Feb-18 23:59N 35°31' E 139°45'0 0.0
2018-Feb-18 23:29N 35°31' E 139°45'0 0.0
2018-Feb-18 22:59N 35°31' E 139°45'0 0.0
2018-Feb-18 22:29N 35°31' E 139°45'0 0.0
2018-Feb-18 21:59N 35°31' E 139°45'0 0.0
2018-Feb-18 21:29N 35°31' E 139°45'0 0.0
2018-Feb-18 20:59N 35°31' E 139°45'0 0.0
2018-Feb-18 20:29N 35°31' E 139°45'0 0.0
2018-Feb-18 19:59N 35°31' E 139°45'0 0.0
2018-Feb-18 19:29N 35°31' E 139°45'0 0.0
2018-Feb-18 18:59N 35°31' E 139°45'0 0.0
2018-Feb-18 18:26N 35°31' E 139°45'0 0.0
2018-Feb-18 17:59N 35°31' E 139°45'0 0.0
2018-Feb-18 17:23N 35°31' E 139°45'0 0.0
2018-Feb-18 16:59N 35°31' E 139°45'0 0.0
2018-Feb-18 16:20N 35°31' E 139°45'0 0.0
2018-Feb-18 15:59N 35°31' E 139°45'0 0.0
2018-Feb-18 15:26N 35°31' E 139°45'0 0.0
2018-Feb-18 14:59N 35°31' E 139°45'0 0.0
2018-Feb-18 14:25N 35°31' E 139°45'0 0.0
2018-Feb-18 13:52N 35°31' E 139°45'0 0.0
2018-Feb-18 13:28N 35°31' E 139°45'0 0.0
2018-Feb-18 12:55N 35°31' E 139°45'0 0.0
2018-Feb-18 12:25N 35°31' E 139°45'0 0.0
2018-Feb-18 11:55N 35°31' E 139°45'0 0.0
2018-Feb-18 11:28N 35°31' E 139°45'0 0.0
2018-Feb-18 10:55N 35°31' E 139°45'0 0.0
2018-Feb-18 10:28N 35°31' E 139°45'0 0.0
2018-Feb-18 09:58N 35°31' E 139°45'0 0.0
2018-Feb-18 09:28N 35°31' E 139°45'0 0.0
2018-Feb-18 08:58N 35°31' E 139°45'0 0.0
2018-Feb-18 08:28N 35°31' E 139°45'0 0.0
2018-Feb-18 07:58N 35°31' E 139°45'0 0.0
2018-Feb-18 07:25N 35°31' E 139°45'0 0.0
2018-Feb-18 06:55N 35°31' E 139°45'0 0.0
2018-Feb-18 06:28N 35°31' E 139°45'0 0.0
2018-Feb-18 05:58N 35°31' E 139°45'0 0.0
2018-Feb-18 05:16N 35°31' E 139°45'0 0.0
2018-Feb-18 04:37N 35°31' E 139°45'0 0.0
2018-Feb-18 04:28N 35°31' E 139°45'0 0.0
2018-Feb-18 03:58N 35°31' E 139°45'0 0.0
2018-Feb-18 03:19N 35°31' E 139°45'0 0.0
2018-Feb-18 02:58N 35°31' E 139°45'0 0.0
2018-Feb-18 02:22N 35°31' E 139°45'0 0.0
2018-Feb-18 01:58N 35°31' E 139°45'0 0.0
2018-Feb-18 01:25N 35°31' E 139°45'0 0.0
2018-Feb-18 00:55N 35°31' E 139°45'0 0.0
2018-Feb-18 00:28N 35°31' E 139°45'0 0.0
2018-Feb-17 23:58N 35°31' E 139°45'0 0.0
2018-Feb-17 23:25N 35°31' E 139°45'0 0.0
2018-Feb-17 22:58N 35°31' E 139°45'0 0.0
2018-Feb-17 22:25N 35°31' E 139°45'0 0.0
2018-Feb-17 21:58N 35°31' E 139°45'0 0.0
2018-Feb-17 21:28N 35°31' E 139°45'0 0.0
2018-Feb-17 20:58N 35°31' E 139°45'0 0.0
2018-Feb-17 20:28N 35°31' E 139°45'0 0.0
2018-Feb-17 19:58N 35°31' E 139°45'0 0.0
2018-Feb-17 19:28N 35°31' E 139°45'0 0.0
2018-Feb-17 18:58N 35°31' E 139°45'0 0.0
2018-Feb-17 18:28N 35°31' E 139°45'0 0.0
2018-Feb-17 17:52N 35°31' E 139°45'0 0.0
2018-Feb-17 17:28N 35°31' E 139°45'0 0.0
2018-Feb-17 16:58N 35°31' E 139°45'0 0.0
2018-Feb-17 16:22N 35°31' E 139°45'0 0.0
2018-Feb-17 15:58N 35°31' E 139°45'0 0.0
2018-Feb-17 15:28N 35°31' E 139°45'0 0.0
2018-Feb-17 14:55N 35°31' E 139°45'0 0.0
2018-Feb-17 14:28N 35°31' E 139°45'0 0.0
2018-Feb-17 13:55N 35°31' E 139°45'0 0.0
2018-Feb-17 13:25N 35°31' E 139°45'0 0.0
2018-Feb-17 12:58N 35°31' E 139°45'0 0.0
2018-Feb-17 12:28N 35°31' E 139°45'0 0.0
2018-Feb-17 11:55N 35°31' E 139°45'0 0.0
2018-Feb-17 11:25N 35°31' E 139°45'0 0.0
2018-Feb-17 10:58N 35°31' E 139°45'0 0.0
2018-Feb-17 10:22N 35°31' E 139°45'0 0.0
2018-Feb-17 09:58N 35°31' E 139°45'0 0.0
2018-Feb-17 09:28N 35°31' E 139°45'0 0.0
2018-Feb-17 08:58N 35°31' E 139°45'0 0.0
2018-Feb-17 08:22N 35°31' E 139°45'0 0.0
2018-Feb-17 07:58N 35°31' E 139°45'0 0.0
2018-Feb-17 07:28N 35°31' E 139°45'0 0.0
2018-Feb-17 06:55N 35°31' E 139°45'0 0.0
2018-Feb-17 06:28N 35°31' E 139°45'0 0.0
2018-Feb-17 06:01N 35°31' E 139°45'0 0.0
2018-Feb-17 05:28N 35°31' E 139°45'0 0.0
2018-Feb-17 05:00N 35°31' E 139°45'0 0.0
2018-Feb-17 04:28N 35°31' E 139°45'0 0.0
2018-Feb-17 04:00N 35°31' E 139°45'0 0.0
2018-Feb-17 03:30N 35°31' E 139°45'0 0.0
2018-Feb-17 03:00N 35°31' E 139°45'0 0.0
2018-Feb-17 02:24N 35°31' E 139°45'0 0.0
2018-Feb-17 01:57N 35°31' E 139°45'0 0.0
2018-Feb-17 01:30N 35°31' E 139°45'0 0.0
2018-Feb-17 00:51N 35°31' E 139°45'0 0.0
2018-Feb-17 00:24N 35°31' E 139°45'0 0.0
2018-Feb-17 00:00N 35°31' E 139°45'0 0.0
2018-Feb-16 23:30N 35°31' E 139°45'0 0.0
2018-Feb-16 22:57N 35°31' E 139°45'0 0.0
2018-Feb-16 22:27N 35°31' E 139°45'0 0.0
2018-Feb-16 22:00N 35°31' E 139°45'0 0.0
2018-Feb-16 21:30N 35°31' E 139°45'0 0.6
2018-Feb-16 21:00N 35°31' E 139°45'4 7.1
2018-Feb-16 20:31N 35°28' E 139°42'1 2.1
2018-Feb-16 19:59N 35°27' E 139°43'0 0.1
2018-Feb-16 19:29N 35°27' E 139°43'0 0.1
2018-Feb-16 18:59N 35°27' E 139°43'0 0.1
2018-Feb-16 18:29N 35°27' E 139°43'0 0.1
2018-Feb-16 17:59N 35°27' E 139°43'0 0.0
2018-Feb-16 17:29N 35°27' E 139°43'0 0.0
2018-Feb-16 16:59N 35°27' E 139°43'0 0.0
2018-Feb-16 16:29N 35°27' E 139°43'0 0.0
2018-Feb-16 15:56N 35°27' E 139°43'0 0.0
2018-Feb-16 15:29N 35°27' E 139°43'0 0.0
2018-Feb-16 14:59N 35°27' E 139°43'0 0.0
2018-Feb-16 14:29N 35°27' E 139°43'0 0.1
2018-Feb-16 13:59N 35°27' E 139°43'0 0.0
2018-Feb-16 13:28N 35°27' E 139°43'0 0.1
2018-Feb-16 12:58N 35°27' E 139°43'0 0.1
2018-Feb-16 12:28N 35°27' E 139°43'0 0.0
2018-Feb-16 11:59N 35°27' E 139°43'0 0.0
2018-Feb-16 11:28N 35°27' E 139°43'0 0.0
2018-Feb-16 10:58N 35°27' E 139°43'0 0.0
2018-Feb-16 10:28N 35°27' E 139°43'0 0.0
2018-Feb-16 09:58N 35°27' E 139°43'0 0.0
2018-Feb-16 09:28N 35°27' E 139°43'0 0.0
2018-Feb-16 08:58N 35°27' E 139°43'0 0.0
2018-Feb-16 08:28N 35°27' E 139°43'1 1.4
2018-Feb-16 08:00N 35°27' E 139°43'4 8.1
2018-Feb-16 07:30N 35°28' E 139°48'510.1
2018-Feb-16 07:00N 35°31' E 139°53'510.2
2018-Feb-16 06:30N 35°33' E 139°59'510.1
2018-Feb-16 06:00N 35°35' E 140°04'2 3.1
2018-Feb-16 05:30N 35°36' E 140°06'0 0.0
2018-Feb-16 04:54N 35°36' E 140°06'0 0.0
2018-Feb-16 04:30N 35°36' E 140°06'0 0.0
2018-Feb-16 04:00N 35°36' E 140°06'0 0.0
2018-Feb-16 03:30N 35°36' E 140°06'0 0.0
2018-Feb-16 03:00N 35°36' E 140°06'0 0.0
2018-Feb-16 02:30N 35°36' E 140°06'0 0.0
2018-Feb-16 02:00N 35°36' E 140°06'0 0.0
2018-Feb-16 01:30N 35°36' E 140°06'0 0.0
2018-Feb-16 01:00N 35°36' E 140°06'0 0.0
2018-Feb-16 00:30N 35°36' E 140°06'0 0.0
2018-Feb-16 00:00N 35°36' E 140°06'0 0.0
2018-Feb-15 23:30N 35°36' E 140°06'0 0.0
2018-Feb-15 23:00N 35°36' E 140°06'0 0.0
2018-Feb-15 22:30N 35°36' E 140°06'0 0.0
2018-Feb-15 22:00N 35°36' E 140°06'0 0.0
2018-Feb-15 21:30N 35°36' E 140°06'0 0.0
2018-Feb-15 21:00N 35°36' E 140°06'0 0.0
2018-Feb-15 20:30N 35°36' E 140°06'0 0.0
2018-Feb-15 20:00N 35°36' E 140°06'0 0.0
2018-Feb-15 19:30N 35°36' E 140°06'0 0.0
2018-Feb-15 19:00N 35°36' E 140°06'0 0.0
2018-Feb-15 18:30N 35°36' E 140°06'0 0.0
2018-Feb-15 18:00N 35°36' E 140°06'0 0.0
2018-Feb-15 17:30N 35°36' E 140°06'0 0.0
2018-Feb-15 17:00N 35°36' E 140°06'0 0.0
2018-Feb-15 16:30N 35°36' E 140°06'0 0.0
2018-Feb-15 16:00N 35°36' E 140°06'0 0.0
2018-Feb-15 15:30N 35°36' E 140°06'0 0.0
2018-Feb-15 15:00N 35°36' E 140°06'0 0.0
2018-Feb-15 14:30N 35°36' E 140°06'0 0.0
2018-Feb-15 14:00N 35°36' E 140°06'0 0.0
2018-Feb-15 13:30N 35°36' E 140°06'0 0.0
2018-Feb-15 13:00N 35°36' E 140°06'0 0.0
2018-Feb-15 12:30N 35°36' E 140°06'0 0.0
2018-Feb-15 12:00N 35°36' E 140°06'0 0.0
2018-Feb-15 11:30N 35°36' E 140°06'0 0.0
2018-Feb-15 11:00N 35°36' E 140°06'0 0.0
2018-Feb-15 10:30N 35°36' E 140°06'0 0.0
2018-Feb-15 09:59N 35°36' E 140°06'0 0.0
2018-Feb-15 09:29N 35°36' E 140°06'0 0.0
2018-Feb-15 08:59N 35°36' E 140°06'0 0.0
2018-Feb-15 08:29N 35°36' E 140°06'0 0.0
2018-Feb-15 07:59N 35°36' E 140°06'0 0.0
2018-Feb-15 07:29N 35°36' E 140°06'0 0.0
2018-Feb-15 06:59N 35°36' E 140°06'0 0.0
2018-Feb-15 06:23N 35°36' E 140°06'0 0.0
2018-Feb-15 05:59N 35°36' E 140°06'0 0.0
2018-Feb-15 05:29N 35°36' E 140°06'0 0.0
2018-Feb-15 04:59N 35°36' E 140°06'0 0.0
2018-Feb-15 04:29N 35°36' E 140°06'0 0.0
2018-Feb-15 03:59N 35°36' E 140°06'0 0.0
2018-Feb-15 03:29N 35°36' E 140°06'0 0.0
2018-Feb-15 02:59N 35°36' E 140°06'0 0.0
2018-Feb-15 02:29N 35°36' E 140°06'0 0.0
2018-Feb-15 01:59N 35°36' E 140°06'0 0.0
2018-Feb-15 01:29N 35°36' E 140°06'0 0.0
2018-Feb-15 00:59N 35°36' E 140°06'0 0.0
2018-Feb-15 00:29N 35°36' E 140°06'0 0.0
2018-Feb-14 23:59N 35°36' E 140°06'0 0.0
2018-Feb-14 23:29N 35°36' E 140°06'0 0.0
2018-Feb-14 22:59N 35°36' E 140°06'0 0.0
2018-Feb-14 22:29N 35°36' E 140°06'0 0.0
2018-Feb-14 21:59N 35°36' E 140°06'0 0.0
2018-Feb-14 21:29N 35°36' E 140°06'0 0.0
2018-Feb-14 20:59N 35°36' E 140°06'0 0.0
2018-Feb-14 20:29N 35°36' E 140°06'0 0.0
2018-Feb-14 19:59N 35°36' E 140°06'0 0.0
2018-Feb-14 19:29N 35°36' E 140°06'0 0.0
2018-Feb-14 18:59N 35°36' E 140°06'0 0.0
2018-Feb-14 18:29N 35°36' E 140°06'0 0.0
2018-Feb-14 17:59N 35°36' E 140°06'0 0.0
2018-Feb-14 17:29N 35°36' E 140°06'0 0.0
2018-Feb-14 16:59N 35°36' E 140°06'0 0.0
2018-Feb-14 16:29N 35°36' E 140°06'0 0.0
2018-Feb-14 15:59N 35°36' E 140°06'0 0.0
2018-Feb-14 15:29N 35°36' E 140°06'0 0.0
2018-Feb-14 14:59N 35°36' E 140°06'0 0.0
2018-Feb-14 14:29N 35°36' E 140°06'0 0.0
2018-Feb-14 13:59N 35°36' E 140°06'0 0.0
2018-Feb-14 13:29N 35°36' E 140°06'0 0.0
2018-Feb-14 12:59N 35°36' E 140°06'0 0.0
2018-Feb-14 12:29N 35°36' E 140°06'0 0.0
2018-Feb-14 11:59N 35°36' E 140°06'0 0.0
2018-Feb-14 11:29N 35°36' E 140°06'0 0.0
2018-Feb-14 10:59N 35°36' E 140°06'0 0.0
2018-Feb-14 10:29N 35°36' E 140°06'0 0.0
2018-Feb-14 09:59N 35°36' E 140°06'0 0.0
2018-Feb-14 09:29N 35°36' E 140°06'0 0.0
2018-Feb-14 08:59N 35°36' E 140°06'0 0.0
2018-Feb-14 08:29N 35°36' E 140°06'0 0.0
2018-Feb-14 07:59N 35°36' E 140°06'0 0.0
2018-Feb-14 07:29N 35°36' E 140°06'0 1.1
2018-Feb-14 07:01N 35°36' E 140°05'3 5.2
2018-Feb-14 06:28N 35°35' E 140°02'0 0.0
2018-Feb-14 05:58N 35°35' E 140°02'0 0.5
2018-Feb-14 05:30N 35°35' E 140°02'4 7.6
2018-Feb-14 04:59N 35°33' E 139°58'  
Track history (hours):
 
Tides and Currents Weather Stations Pressure Air Temp Water Temp Dewpoint Dewpoint Depression Visibility Wind Speed Wind Dir Waves Ship Positions

Xiang Long

Last reported at 2018-Feb-24 04:59 UTC. Time now 2018-Feb-25 01:49 UTC.
Position N 30°43' E 122°15'.

Length 75 m; draft 4.2 m.

Type: Cargo ship. MMSI: 312031000.

Date/timePositionNaut miles runAvg speedWind from/ knotsBaromVisibWave heightAir tempDewpointWater temp
2018-Feb-24 04:59N 30°43' E 122°15'425 9.3
2018-Feb-22 07:29N 33°41' E 129°51'6 9.0
2018-Feb-22 06:52N 33°43' E 129°57'3 9.1
2018-Feb-22 06:31N 33°44' E 130°01'5 9.1
2018-Feb-22 06:00N 33°47' E 130°06'5 9.1
2018-Feb-22 05:30N 33°49' E 130°10'5 9.3
2018-Feb-22 04:59N 33°52' E 130°15'4 9.2
2018-Feb-22 04:30N 33°55' E 130°19'5 9.2
2018-Feb-22 04:01N 33°57' E 130°24'5 9.7
2018-Feb-22 03:30N 33°57' E 130°30'5 9.3
2018-Feb-22 03:00N 33°57' E 130°36'5 9.2
2018-Feb-22 02:30N 33°58' E 130°41'5 9.6
2018-Feb-22 02:00N 33°58' E 130°47'5 9.0
2018-Feb-22 01:30N 33°56' E 130°52'3 6.5
2018-Feb-22 01:00N 33°56' E 130°56'4 7.8
2018-Feb-22 00:31N 33°59' E 130°59'4 7.9
2018-Feb-22 00:00N 33°57' E 131°03'5 9.7
2018-Feb-21 23:30N 33°54' E 131°08'5 9.7
2018-Feb-21 23:01N 33°52' E 131°13'5 9.9
2018-Feb-21 22:30N 33°51' E 131°19'5 9.8
2018-Feb-21 22:01N 33°50' E 131°25'5 9.6
2018-Feb-21 21:31N 33°50' E 131°31'3 5.1
2018-Feb-21 20:58N 33°50' E 131°34'5 9.9
2018-Feb-21 20:31N 33°50' E 131°28'5 9.9
2018-Feb-21 20:00N 33°51' E 131°23'510.0
2018-Feb-21 19:30N 33°52' E 131°17'1 2.0
2018-Feb-21 19:01N 33°51' E 131°15'5 9.2
2018-Feb-21 18:31N 33°50' E 131°21'5 9.3
2018-Feb-21 18:01N 33°50' E 131°26'5 9.2
2018-Feb-21 17:31N 33°49' E 131°32'5 9.2
2018-Feb-21 17:00N 33°48' E 131°37'5 9.3
2018-Feb-21 16:30N 33°47' E 131°43'5 9.4
2018-Feb-21 16:00N 33°47' E 131°49'5 9.6
2018-Feb-21 15:30N 33°46' E 131°54'6 9.2
2018-Feb-21 14:53N 33°46' E 132°01'4 9.0
2018-Feb-21 14:27N 33°47' E 132°05'4 9.2
2018-Feb-21 14:00N 33°49' E 132°10'4 9.0
2018-Feb-21 13:31N 33°50' E 132°15'5 9.1
2018-Feb-21 13:00N 33°50' E 132°20'6 8.2
2018-Feb-21 12:15N 33°53' E 132°27'2 8.9
2018-Feb-21 12:01N 33°55' E 132°29'5 9.3
2018-Feb-21 11:28N 33°58' E 132°34'5 9.9
2018-Feb-21 11:00N 34°01' E 132°37'510.2
2018-Feb-21 10:30N 34°05' E 132°41'71 9.4
2018-Feb-21 02:53N 34°27' E 134°03'1510.4
2018-Feb-21 01:24N 34°25' E 134°22'410.0
2018-Feb-21 01:00N 34°27' E 134°27'5 9.9
2018-Feb-21 00:30N 34°29' E 134°32'510.0
2018-Feb-21 00:00N 34°30' E 134°38'5 9.7
2018-Feb-20 23:30N 34°32' E 134°43'5 9.6
2018-Feb-20 23:00N 34°34' E 134°49'4 8.9
2018-Feb-20 22:30N 34°35' E 134°54'4 8.4
2018-Feb-20 22:00N 34°37' E 134°58'3 6.9
2018-Feb-20 21:30N 34°37' E 135°02'3 6.6
2018-Feb-20 21:01N 34°35' E 135°06'4 8.6
2018-Feb-20 20:31N 34°31' E 135°04'5 9.1
2018-Feb-20 20:00N 34°26' E 135°03'4 8.8
2018-Feb-20 19:30N 34°22' E 135°01'4 8.4
2018-Feb-20 19:00N 34°18' E 134°60'4 8.1
2018-Feb-20 18:30N 34°14' E 134°60'4 8.9
2018-Feb-20 18:01N 34°10' E 134°60'5 9.1
2018-Feb-20 17:31N 34°05' E 134°60'5 8.9
2018-Feb-20 16:59N 34°01' E 135°00'4 9.0
2018-Feb-20 16:31N 33°56' E 135°00'5 9.0
2018-Feb-20 16:01N 33°52' E 135°01'5 9.1
2018-Feb-20 15:25N 33°48' E 135°05'161 7.9
2018-Feb-19 18:57N 34°32' E 138°12'4 8.4
2018-Feb-19 18:28N 34°33' E 138°17'8 8.7
2018-Feb-19 17:34N 34°34' E 138°27'2 8.9
2018-Feb-19 17:24N 34°34' E 138°29'4 9.2
2018-Feb-19 16:59N 34°34' E 138°33'13 8.9
2018-Feb-19 15:33N 34°35' E 138°49'0 9.1
2018-Feb-19 15:30N 34°35' E 138°49'4 8.0
2018-Feb-19 14:59N 34°36' E 138°54'4 8.1
2018-Feb-19 14:27N 34°38' E 138°59'4 8.6
2018-Feb-19 14:00N 34°41' E 139°02'6 9.9
2018-Feb-19 13:21N 34°46' E 139°07'3 9.7
2018-Feb-19 13:00N 34°48' E 139°10'6 9.7
2018-Feb-19 12:21N 34°51' E 139°17'3 9.2
2018-Feb-19 12:00N 34°52' E 139°20'5 9.7
2018-Feb-19 11:30N 34°55' E 139°25'5 9.7
2018-Feb-19 11:00N 34°57' E 139°30'5 9.4
2018-Feb-19 10:29N 35°00' E 139°35'5 9.5
2018-Feb-19 10:00N 35°04' E 139°39'5 9.8
2018-Feb-19 09:30N 35°07' E 139°42'5 9.8
2018-Feb-19 09:00N 35°12' E 139°45'4 8.6
2018-Feb-19 08:30N 35°16' E 139°46'4 9.0
2018-Feb-19 08:01N 35°20' E 139°43'4 8.6
2018-Feb-19 07:31N 35°24' E 139°43'4 8.7
2018-Feb-19 07:01N 35°27' E 139°47'3 6.7
2018-Feb-19 06:30N 35°30' E 139°46'1 2.1
2018-Feb-19 05:56N 35°31' E 139°45'0 0.0
2018-Feb-19 05:26N 35°31' E 139°45'0 0.0
2018-Feb-19 04:56N 35°31' E 139°45'0 0.0
2018-Feb-19 04:29N 35°31' E 139°45'0 0.0
2018-Feb-19 03:59N 35°31' E 139°45'0 0.0
2018-Feb-19 03:29N 35°31' E 139°45'0 0.0
2018-Feb-19 02:59N 35°31' E 139°45'0 0.0
2018-Feb-19 02:26N 35°31' E 139°45'0 0.0
2018-Feb-19 01:56N 35°31' E 139°45'0 0.0
2018-Feb-19 01:26N 35°31' E 139°45'0 0.0
2018-Feb-19 00:59N 35°31' E 139°45'0 0.0
2018-Feb-19 00:29N 35°31' E 139°45'0 0.0
2018-Feb-18 23:59N 35°31' E 139°45'0 0.0
2018-Feb-18 23:29N 35°31' E 139°45'0 0.0
2018-Feb-18 22:59N 35°31' E 139°45'0 0.0
2018-Feb-18 22:29N 35°31' E 139°45'0 0.0
2018-Feb-18 21:59N 35°31' E 139°45'0 0.0
2018-Feb-18 21:29N 35°31' E 139°45'0 0.0
2018-Feb-18 20:59N 35°31' E 139°45'0 0.0
2018-Feb-18 20:29N 35°31' E 139°45'0 0.0
2018-Feb-18 19:59N 35°31' E 139°45'0 0.0
2018-Feb-18 19:29N 35°31' E 139°45'0 0.0
2018-Feb-18 18:59N 35°31' E 139°45'0 0.0
2018-Feb-18 18:26N 35°31' E 139°45'0 0.0
2018-Feb-18 17:59N 35°31' E 139°45'0 0.0
2018-Feb-18 17:23N 35°31' E 139°45'0 0.0
2018-Feb-18 16:59N 35°31' E 139°45'0 0.0
2018-Feb-18 16:20N 35°31' E 139°45'0 0.0
2018-Feb-18 15:59N 35°31' E 139°45'0 0.0
2018-Feb-18 15:26N 35°31' E 139°45'0 0.0
2018-Feb-18 14:59N 35°31' E 139°45'0 0.0
2018-Feb-18 14:25N 35°31' E 139°45'0 0.0
2018-Feb-18 13:52N 35°31' E 139°45'0 0.0
2018-Feb-18 13:28N 35°31' E 139°45'0 0.0
2018-Feb-18 12:55N 35°31' E 139°45'0 0.0
2018-Feb-18 12:25N 35°31' E 139°45'0 0.0
2018-Feb-18 11:55N 35°31' E 139°45'0 0.0
2018-Feb-18 11:28N 35°31' E 139°45'0 0.0
2018-Feb-18 10:55N 35°31' E 139°45'0 0.0
2018-Feb-18 10:28N 35°31' E 139°45'0 0.0
2018-Feb-18 09:58N 35°31' E 139°45'0 0.0
2018-Feb-18 09:28N 35°31' E 139°45'0 0.0
2018-Feb-18 08:58N 35°31' E 139°45'0 0.0
2018-Feb-18 08:28N 35°31' E 139°45'0 0.0
2018-Feb-18 07:58N 35°31' E 139°45'0 0.0
2018-Feb-18 07:25N 35°31' E 139°45'0 0.0
2018-Feb-18 06:55N 35°31' E 139°45'0 0.0
2018-Feb-18 06:28N 35°31' E 139°45'0 0.0
2018-Feb-18 05:58N 35°31' E 139°45'0 0.0
2018-Feb-18 05:16N 35°31' E 139°45'0 0.0
2018-Feb-18 04:37N 35°31' E 139°45'0 0.0
2018-Feb-18 04:28N 35°31' E 139°45'0 0.0
2018-Feb-18 03:58N 35°31' E 139°45'0 0.0
2018-Feb-18 03:19N 35°31' E 139°45'0 0.0
2018-Feb-18 02:58N 35°31' E 139°45'0 0.0
2018-Feb-18 02:22N 35°31' E 139°45'0 0.0
2018-Feb-18 01:58N 35°31' E 139°45'0 0.0
2018-Feb-18 01:25N 35°31' E 139°45'0 0.0
2018-Feb-18 00:55N 35°31' E 139°45'0 0.0
2018-Feb-18 00:28N 35°31' E 139°45'0 0.0
2018-Feb-17 23:58N 35°31' E 139°45'0 0.0
2018-Feb-17 23:25N 35°31' E 139°45'0 0.0
2018-Feb-17 22:58N 35°31' E 139°45'0 0.0
2018-Feb-17 22:25N 35°31' E 139°45'0 0.0
2018-Feb-17 21:58N 35°31' E 139°45'0 0.0
2018-Feb-17 21:28N 35°31' E 139°45'0 0.0
2018-Feb-17 20:58N 35°31' E 139°45'0 0.0
2018-Feb-17 20:28N 35°31' E 139°45'0 0.0
2018-Feb-17 19:58N 35°31' E 139°45'0 0.0
2018-Feb-17 19:28N 35°31' E 139°45'0 0.0
2018-Feb-17 18:58N 35°31' E 139°45'0 0.0
2018-Feb-17 18:28N 35°31' E 139°45'0 0.0
2018-Feb-17 17:52N 35°31' E 139°45'0 0.0
2018-Feb-17 17:28N 35°31' E 139°45'0 0.0
2018-Feb-17 16:58N 35°31' E 139°45'0 0.0
2018-Feb-17 16:22N 35°31' E 139°45'0 0.0
2018-Feb-17 15:58N 35°31' E 139°45'0 0.0
2018-Feb-17 15:28N 35°31' E 139°45'0 0.0
2018-Feb-17 14:55N 35°31' E 139°45'0 0.0
2018-Feb-17 14:28N 35°31' E 139°45'0 0.0
2018-Feb-17 13:55N 35°31' E 139°45'0 0.0
2018-Feb-17 13:25N 35°31' E 139°45'0 0.0
2018-Feb-17 12:58N 35°31' E 139°45'0 0.0
2018-Feb-17 12:28N 35°31' E 139°45'0 0.0
2018-Feb-17 11:55N 35°31' E 139°45'0 0.0
2018-Feb-17 11:25N 35°31' E 139°45'0 0.0
2018-Feb-17 10:58N 35°31' E 139°45'0 0.0
2018-Feb-17 10:22N 35°31' E 139°45'0 0.0
2018-Feb-17 09:58N 35°31' E 139°45'0 0.0
2018-Feb-17 09:28N 35°31' E 139°45'0 0.0
2018-Feb-17 08:58N 35°31' E 139°45'0 0.0
2018-Feb-17 08:22N 35°31' E 139°45'0 0.0
2018-Feb-17 07:58N 35°31' E 139°45'0 0.0
2018-Feb-17 07:28N 35°31' E 139°45'0 0.0
2018-Feb-17 06:55N 35°31' E 139°45'0 0.0
2018-Feb-17 06:28N 35°31' E 139°45'0 0.0
2018-Feb-17 06:01N 35°31' E 139°45'0 0.0
2018-Feb-17 05:28N 35°31' E 139°45'0 0.0
2018-Feb-17 05:00N 35°31' E 139°45'0 0.0
2018-Feb-17 04:28N 35°31' E 139°45'0 0.0
2018-Feb-17 04:00N 35°31' E 139°45'0 0.0
2018-Feb-17 03:30N 35°31' E 139°45'0 0.0
2018-Feb-17 03:00N 35°31' E 139°45'0 0.0
2018-Feb-17 02:24N 35°31' E 139°45'0 0.0
2018-Feb-17 01:57N 35°31' E 139°45'0 0.0
2018-Feb-17 01:30N 35°31' E 139°45'0 0.0
2018-Feb-17 00:51N 35°31' E 139°45'0 0.0
2018-Feb-17 00:24N 35°31' E 139°45'0 0.0
2018-Feb-17 00:00N 35°31' E 139°45'0 0.0
2018-Feb-16 23:30N 35°31' E 139°45'0 0.0
2018-Feb-16 22:57N 35°31' E 139°45'0 0.0
2018-Feb-16 22:27N 35°31' E 139°45'0 0.0
2018-Feb-16 22:00N 35°31' E 139°45'0 0.0
2018-Feb-16 21:30N 35°31' E 139°45'0 0.6
2018-Feb-16 21:00N 35°31' E 139°45'4 7.1
2018-Feb-16 20:31N 35°28' E 139°42'1 2.1
2018-Feb-16 19:59N 35°27' E 139°43'0 0.1
2018-Feb-16 19:29N 35°27' E 139°43'0 0.1
2018-Feb-16 18:59N 35°27' E 139°43'0 0.1
2018-Feb-16 18:29N 35°27' E 139°43'0 0.1
2018-Feb-16 17:59N 35°27' E 139°43'0 0.0
2018-Feb-16 17:29N 35°27' E 139°43'0 0.0
2018-Feb-16 16:59N 35°27' E 139°43'0 0.0
2018-Feb-16 16:29N 35°27' E 139°43'0 0.0
2018-Feb-16 15:56N 35°27' E 139°43'0 0.0
2018-Feb-16 15:29N 35°27' E 139°43'0 0.0
2018-Feb-16 14:59N 35°27' E 139°43'0 0.0
2018-Feb-16 14:29N 35°27' E 139°43'0 0.1
2018-Feb-16 13:59N 35°27' E 139°43'0 0.0
2018-Feb-16 13:28N 35°27' E 139°43'0 0.1
2018-Feb-16 12:58N 35°27' E 139°43'0 0.1
2018-Feb-16 12:28N 35°27' E 139°43'0 0.0
2018-Feb-16 11:59N 35°27' E 139°43'0 0.0
2018-Feb-16 11:28N 35°27' E 139°43'0 0.0
2018-Feb-16 10:58N 35°27' E 139°43'0 0.0
2018-Feb-16 10:28N 35°27' E 139°43'0 0.0
2018-Feb-16 09:58N 35°27' E 139°43'0 0.0
2018-Feb-16 09:28N 35°27' E 139°43'0 0.0
2018-Feb-16 08:58N 35°27' E 139°43'0 0.0
2018-Feb-16 08:28N 35°27' E 139°43'1 1.4
2018-Feb-16 08:00N 35°27' E 139°43'4 8.1
2018-Feb-16 07:30N 35°28' E 139°48'510.1
2018-Feb-16 07:00N 35°31' E 139°53'510.2
2018-Feb-16 06:30N 35°33' E 139°59'510.1
2018-Feb-16 06:00N 35°35' E 140°04'2 3.1
2018-Feb-16 05:30N 35°36' E 140°06'0 0.0
2018-Feb-16 04:54N 35°36' E 140°06'0 0.0
2018-Feb-16 04:30N 35°36' E 140°06'0 0.0
2018-Feb-16 04:00N 35°36' E 140°06'0 0.0
2018-Feb-16 03:30N 35°36' E 140°06'0 0.0
2018-Feb-16 03:00N 35°36' E 140°06'0 0.0
2018-Feb-16 02:30N 35°36' E 140°06'0 0.0
2018-Feb-16 02:00N 35°36' E 140°06'0 0.0
2018-Feb-16 01:30N 35°36' E 140°06'0 0.0
2018-Feb-16 01:00N 35°36' E 140°06'0 0.0
2018-Feb-16 00:30N 35°36' E 140°06'0 0.0
2018-Feb-16 00:00N 35°36' E 140°06'0 0.0
2018-Feb-15 23:30N 35°36' E 140°06'0 0.0
2018-Feb-15 23:00N 35°36' E 140°06'0 0.0
2018-Feb-15 22:30N 35°36' E 140°06'0 0.0
2018-Feb-15 22:00N 35°36' E 140°06'0 0.0
2018-Feb-15 21:30N 35°36' E 140°06'0 0.0
2018-Feb-15 21:00N 35°36' E 140°06'0 0.0
2018-Feb-15 20:30N 35°36' E 140°06'0 0.0
2018-Feb-15 20:00N 35°36' E 140°06'0 0.0
2018-Feb-15 19:30N 35°36' E 140°06'0 0.0
2018-Feb-15 19:00N 35°36' E 140°06'0 0.0
2018-Feb-15 18:30N 35°36' E 140°06'0 0.0
2018-Feb-15 18:00N 35°36' E 140°06'0 0.0
2018-Feb-15 17:30N 35°36' E 140°06'0 0.0
2018-Feb-15 17:00N 35°36' E 140°06'0 0.0
2018-Feb-15 16:30N 35°36' E 140°06'0 0.0
2018-Feb-15 16:00N 35°36' E 140°06'0 0.0
2018-Feb-15 15:30N 35°36' E 140°06'0 0.0
2018-Feb-15 15:00N 35°36' E 140°06'0 0.0
2018-Feb-15 14:30N 35°36' E 140°06'0 0.0
2018-Feb-15 14:00N 35°36' E 140°06'0 0.0
2018-Feb-15 13:30N 35°36' E 140°06'0 0.0
2018-Feb-15 13:00N 35°36' E 140°06'0 0.0
2018-Feb-15 12:30N 35°36' E 140°06'0 0.0
2018-Feb-15 12:00N 35°36' E 140°06'0 0.0
2018-Feb-15 11:30N 35°36' E 140°06'0 0.0
2018-Feb-15 11:00N 35°36' E 140°06'0 0.0
2018-Feb-15 10:30N 35°36' E 140°06'0 0.0
2018-Feb-15 09:59N 35°36' E 140°06'0 0.0
2018-Feb-15 09:29N 35°36' E 140°06'0 0.0
2018-Feb-15 08:59N 35°36' E 140°06'0 0.0
2018-Feb-15 08:29N 35°36' E 140°06'0 0.0
2018-Feb-15 07:59N 35°36' E 140°06'0 0.0
2018-Feb-15 07:29N 35°36' E 140°06'0 0.0
2018-Feb-15 06:59N 35°36' E 140°06'0 0.0
2018-Feb-15 06:23N 35°36' E 140°06'0 0.0
2018-Feb-15 05:59N 35°36' E 140°06'0 0.0
2018-Feb-15 05:29N 35°36' E 140°06'0 0.0
2018-Feb-15 04:59N 35°36' E 140°06'0 0.0
2018-Feb-15 04:29N 35°36' E 140°06'0 0.0
2018-Feb-15 03:59N 35°36' E 140°06'0 0.0
2018-Feb-15 03:29N 35°36' E 140°06'0 0.0
2018-Feb-15 02:59N 35°36' E 140°06'0 0.0
2018-Feb-15 02:29N 35°36' E 140°06'0 0.0
2018-Feb-15 01:59N 35°36' E 140°06'0 0.0
2018-Feb-15 01:29N 35°36' E 140°06'0 0.0
2018-Feb-15 00:59N 35°36' E 140°06'0 0.0
2018-Feb-15 00:29N 35°36' E 140°06'0 0.0
2018-Feb-14 23:59N 35°36' E 140°06'0 0.0
2018-Feb-14 23:29N 35°36' E 140°06'0 0.0
2018-Feb-14 22:59N 35°36' E 140°06'0 0.0
2018-Feb-14 22:29N 35°36' E 140°06'0 0.0
2018-Feb-14 21:59N 35°36' E 140°06'0 0.0
2018-Feb-14 21:29N 35°36' E 140°06'0 0.0
2018-Feb-14 20:59N 35°36' E 140°06'0 0.0
2018-Feb-14 20:29N 35°36' E 140°06'0 0.0
2018-Feb-14 19:59N 35°36' E 140°06'0 0.0
2018-Feb-14 19:29N 35°36' E 140°06'0 0.0
2018-Feb-14 18:59N 35°36' E 140°06'0 0.0
2018-Feb-14 18:29N 35°36' E 140°06'0 0.0
2018-Feb-14 17:59N 35°36' E 140°06'0 0.0
2018-Feb-14 17:29N 35°36' E 140°06'0 0.0
2018-Feb-14 16:59N 35°36' E 140°06'0 0.0
2018-Feb-14 16:29N 35°36' E 140°06'0 0.0
2018-Feb-14 15:59N 35°36' E 140°06'0 0.0
2018-Feb-14 15:29N 35°36' E 140°06'0 0.0
2018-Feb-14 14:59N 35°36' E 140°06'0 0.0
2018-Feb-14 14:29N 35°36' E 140°06'0 0.0
2018-Feb-14 13:59N 35°36' E 140°06'0 0.0
2018-Feb-14 13:29N 35°36' E 140°06'0 0.0
2018-Feb-14 12:59N 35°36' E 140°06'0 0.0
2018-Feb-14 12:29N 35°36' E 140°06'0 0.0
2018-Feb-14 11:59N 35°36' E 140°06'0 0.0
2018-Feb-14 11:29N 35°36' E 140°06'0 0.0
2018-Feb-14 10:59N 35°36' E 140°06'0 0.0
2018-Feb-14 10:29N 35°36' E 140°06'0 0.0
2018-Feb-14 09:59N 35°36' E 140°06'0 0.0
2018-Feb-14 09:29N 35°36' E 140°06'0 0.0
2018-Feb-14 08:59N 35°36' E 140°06'0 0.0
2018-Feb-14 08:29N 35°36' E 140°06'0 0.0
2018-Feb-14 07:59N 35°36' E 140°06'0 0.0
2018-Feb-14 07:29N 35°36' E 140°06'0 1.1
2018-Feb-14 07:01N 35°36' E 140°05'3 5.2
2018-Feb-14 06:28N 35°35' E 140°02'0 0.0
2018-Feb-14 05:58N 35°35' E 140°02'0 0.5
2018-Feb-14 05:30N 35°35' E 140°02'4 7.6
2018-Feb-14 04:59N 35°33' E 139°58'  

Dump ship's entire track history